Portada
METAR-TAF:

METAR-TAF

Aeroports :

Lanzhou, Xina

latitud: 36-02N, longitud: 103-52E, altitud: 1518 m

Observació

L'informe es va fer fa 52 minuts, a les 23:00 UTC
Vent 4 kt del Nord-Oest
Temperatura -7°C
Humitat 93%
Pressió 1012 hPa
Visibilitat: 8000 m

METAR: ZLLL 212300Z 32002MPS 8000 NSC M07/M08 Q1012 NOSIG

Hora: 07:52 (23:52 UTC)

Pronòstic

L'informe es va fer fa 4 hores i 38 minuts, a les 19:14 UTC
Pronòstic vàlid del 22 a les 00 UTC al 22 a les 24 UTC
Vent 6 kt del Sud
Visibilitat: 6000 m
Evolucionant progressivament
l' 22 a les 05 UTC al 22 a les 06 UTC
Vent 12 kt del Est/Nord-Est
Evolucionant progressivament
l' 22 a les 13 UTC al 22 a les 14 UTC
Vent 6 kt del Nord/Nord-Oest

TAF: ZLLL 211914Z 2200/2224 17003MPS 6000 NSC TX07/2208Z TNM10/23Z BECMG 2205/2206 06006MPS BECMG 2213/2214 34003MPS

Observacions i pronòstics meteorològics de més de 4000 aeroports (METAR i TAF).

Les estacions disponibles són els punts grocs i vermells al mapa.

Posi el ratolí al punt desitjat per veure el nom de l'estació.

Feu clic per veure les observacions i els pronòstics meteorològics.

Per canviar el mapa: feu clic els botons verds amb una creu de color negre per apropar; al botó verd amb un guió per allunyar la imatge; o en les fletxes verdes per a mapes adjacents.


METAR-TAF: